sensor_id;sensor_type;location;lat;lon;timestamp;P1;durP1;ratioP1;P2;durP2;ratioP2
49223;SDS011;35050;51.316;5.994;2023-04-02T00:01:18;2.38;;;2.17;;
49223;SDS011;35050;51.316;5.994;2023-04-02T00:09:01;2.72;;;2.50;;
49223;SDS011;35050;51.316;5.994;2023-04-02T00:11:42;2.42;;;2.22;;
49223;SDS011;35050;51.316;5.994;2023-04-02T00:14:32;2.78;;;2.58;;
49223;SDS011;35050;51.316;5.994;2023-04-02T00:17:01;2.00;;;1.90;;
49223;SDS011;35050;51.316;5.994;2023-04-02T00:22:20;2.50;;;2.30;;
49223;SDS011;35050;51.316;5.994;2023-04-02T00:24:50;1.80;;;1.70;;
49223;SDS011;35050;51.316;5.994;2023-04-02T00:27:18;2.20;;;2.10;;
49223;SDS011;35050;51.316;5.994;2023-04-02T00:29:51;2.13;;;2.03;;
49223;SDS011;35050;51.316;5.994;2023-04-02T00:32:20;2.20;;;2.00;;
49223;SDS011;35050;51.316;5.994;2023-04-02T00:34:51;1.92;;;1.83;;
49223;SDS011;35050;51.316;5.994;2023-04-02T00:37:18;2.67;;;1.83;;
49223;SDS011;35050;51.316;5.994;2023-04-02T00:39:48;1.50;;;1.40;;
49223;SDS011;35050;51.316;5.994;2023-04-02T00:42:36;1.80;;;1.70;;
49223;SDS011;35050;51.316;5.994;2023-04-02T00:45:04;1.70;;;1.60;;
49223;SDS011;35050;51.316;5.994;2023-04-02T00:47:38;1.60;;;1.50;;
49223;SDS011;35050;51.316;5.994;2023-04-02T00:52:36;2.13;;;1.50;;
49223;SDS011;35050;51.316;5.994;2023-04-02T00:57:56;2.05;;;1.88;;
49223;SDS011;35050;51.316;5.994;2023-04-02T01:00:28;2.40;;;1.95;;
49223;SDS011;35050;51.316;5.994;2023-04-02T01:05:42;2.20;;;2.00;;
49223;SDS011;35050;51.316;5.994;2023-04-02T01:21:20;2.10;;;1.90;;
49223;SDS011;35050;51.316;5.994;2023-04-02T01:24:05;2.05;;;1.95;;
49223;SDS011;35050;51.316;5.994;2023-04-02T01:26:47;1.95;;;1.75;;
49223;SDS011;35050;51.316;5.994;2023-04-02T01:29:27;1.63;;;1.52;;
49223;SDS011;35050;51.316;5.994;2023-04-02T01:32:04;2.05;;;1.85;;
49223;SDS011;35050;51.316;5.994;2023-04-02T01:34:31;1.90;;;1.80;;
49223;SDS011;35050;51.316;5.994;2023-04-02T01:37:09;1.75;;;1.63;;
49223;SDS011;35050;51.316;5.994;2023-04-02T01:42:31;1.73;;;1.63;;
49223;SDS011;35050;51.316;5.994;2023-04-02T01:45:18;2.13;;;2.00;;
49223;SDS011;35050;51.316;5.994;2023-04-02T01:47:46;2.05;;;1.80;;
49223;SDS011;35050;51.316;5.994;2023-04-02T01:50:26;1.60;;;1.50;;
49223;SDS011;35050;51.316;5.994;2023-04-02T01:53:01;1.90;;;1.80;;
49223;SDS011;35050;51.316;5.994;2023-04-02T01:58:06;1.95;;;1.55;;
49223;SDS011;35050;51.316;5.994;2023-04-02T02:00:33;1.63;;;1.52;;
49223;SDS011;35050;51.316;5.994;2023-04-02T02:03:01;1.95;;;1.85;;
49223;SDS011;35050;51.316;5.994;2023-04-02T02:05:29;1.90;;;1.80;;
49223;SDS011;35050;51.316;5.994;2023-04-02T02:07:55;1.70;;;1.60;;
49223;SDS011;35050;51.316;5.994;2023-04-02T02:10:25;1.70;;;1.60;;
49223;SDS011;35050;51.316;5.994;2023-04-02T02:12:59;1.70;;;1.60;;
49223;SDS011;35050;51.316;5.994;2023-04-02T02:15:25;1.83;;;1.73;;
49223;SDS011;35050;51.316;5.994;2023-04-02T02:17:58;1.75;;;1.65;;
49223;SDS011;35050;51.316;5.994;2023-04-02T02:20:27;3.55;;;2.22;;
49223;SDS011;35050;51.316;5.994;2023-04-02T02:22:53;1.77;;;1.67;;
49223;SDS011;35050;51.316;5.994;2023-04-02T02:25:23;1.83;;;1.73;;
49223;SDS011;35050;51.316;5.994;2023-04-02T02:27:59;2.20;;;2.00;;
49223;SDS011;35050;51.316;5.994;2023-04-02T02:30:27;1.83;;;1.73;;
49223;SDS011;35050;51.316;5.994;2023-04-02T02:32:59;1.77;;;1.63;;
49223;SDS011;35050;51.316;5.994;2023-04-02T02:35:47;2.55;;;1.90;;
49223;SDS011;35050;51.316;5.994;2023-04-02T02:38:24;2.28;;;2.08;;
49223;SDS011;35050;51.316;5.994;2023-04-02T02:41:10;1.95;;;1.75;;
49223;SDS011;35050;51.316;5.994;2023-04-02T02:43:37;2.28;;;2.03;;
49223;SDS011;35050;51.316;5.994;2023-04-02T02:46:06;2.38;;;2.17;;
49223;SDS011;35050;51.316;5.994;2023-04-02T02:48:35;2.33;;;2.00;;
49223;SDS011;35050;51.316;5.994;2023-04-02T02:51:04;2.47;;;2.20;;
49223;SDS011;35050;51.316;5.994;2023-04-02T02:53:33;1.98;;;1.88;;
49223;SDS011;35050;51.316;5.994;2023-04-02T02:56:12;2.15;;;1.95;;
49223;SDS011;35050;51.316;5.994;2023-04-02T02:58:38;2.28;;;2.00;;
49223;SDS011;35050;51.316;5.994;2023-04-02T03:01:04;1.83;;;1.73;;
49223;SDS011;35050;51.316;5.994;2023-04-02T03:03:30;2.40;;;2.20;;
49223;SDS011;35050;51.316;5.994;2023-04-02T03:06:05;2.70;;;2.50;;
49223;SDS011;35050;51.316;5.994;2023-04-02T03:11:06;2.50;;;2.30;;
49223;SDS011;35050;51.316;5.994;2023-04-02T03:13:41;2.45;;;2.25;;
49223;SDS011;35050;51.316;5.994;2023-04-02T03:16:18;2.55;;;2.30;;
49223;SDS011;35050;51.316;5.994;2023-04-02T03:18:51;2.50;;;2.28;;
49223;SDS011;35050;51.316;5.994;2023-04-02T03:24:17;2.60;;;2.40;;
49223;SDS011;35050;51.316;5.994;2023-04-02T03:29:17;2.17;;;1.85;;
49223;SDS011;35050;51.316;5.994;2023-04-02T03:32:29;2.75;;;2.28;;
49223;SDS011;35050;51.316;5.994;2023-04-02T03:34:41;2.50;;;2.30;;
49223;SDS011;35050;51.316;5.994;2023-04-02T03:37:23;3.42;;;2.30;;
49223;SDS011;35050;51.316;5.994;2023-04-02T03:39:59;3.85;;;2.50;;
49223;SDS011;35050;51.316;5.994;2023-04-02T03:45:22;6.32;;;3.25;;
49223;SDS011;35050;51.316;5.994;2023-04-02T03:47:58;3.28;;;3.00;;
49223;SDS011;35050;51.316;5.994;2023-04-02T03:50:46;4.03;;;3.40;;
49223;SDS011;35050;51.316;5.994;2023-04-02T03:53:27;3.63;;;2.80;;
49223;SDS011;35050;51.316;5.994;2023-04-02T03:55:56;3.40;;;2.97;;
49223;SDS011;35050;51.316;5.994;2023-04-02T03:58:41;3.75;;;3.15;;
49223;SDS011;35050;51.316;5.994;2023-04-02T04:03:52;3.80;;;2.30;;
49223;SDS011;35050;51.316;5.994;2023-04-02T04:06:22;2.88;;;2.67;;
49223;SDS011;35050;51.316;5.994;2023-04-02T04:09:39;2.67;;;2.45;;
49223;SDS011;35050;51.316;5.994;2023-04-02T04:14:45;2.60;;;2.40;;
49223;SDS011;35050;51.316;5.994;2023-04-02T04:17:25;3.20;;;2.90;;
49223;SDS011;35050;51.316;5.994;2023-04-02T04:22:34;3.55;;;2.78;;
49223;SDS011;35050;51.316;5.994;2023-04-02T04:25:04;3.35;;;3.05;;
49223;SDS011;35050;51.316;5.994;2023-04-02T04:27:54;3.22;;;2.92;;
49223;SDS011;35050;51.316;5.994;2023-04-02T04:30:51;4.85;;;3.00;;
49223;SDS011;35050;51.316;5.994;2023-04-02T04:33:30;3.42;;;3.13;;
49223;SDS011;35050;51.316;5.994;2023-04-02T04:36:04;2.80;;;2.60;;
49223;SDS011;35050;51.316;5.994;2023-04-02T04:38:44;3.28;;;2.80;;
49223;SDS011;35050;51.316;5.994;2023-04-02T04:41:22;3.30;;;3.00;;
49223;SDS011;35050;51.316;5.994;2023-04-02T04:46:44;3.20;;;2.90;;
49223;SDS011;35050;51.316;5.994;2023-04-02T04:49:37;6.97;;;4.40;;
49223;SDS011;35050;51.316;5.994;2023-04-02T04:52:16;6.35;;;5.10;;
49223;SDS011;35050;51.316;5.994;2023-04-02T04:54:46;5.32;;;4.75;;
49223;SDS011;35050;51.316;5.994;2023-04-02T04:57:18;5.40;;;4.38;;
49223;SDS011;35050;51.316;5.994;2023-04-02T05:05:24;4.70;;;4.05;;
49223;SDS011;35050;51.316;5.994;2023-04-02T05:08:00;5.50;;;4.00;;
49223;SDS011;35050;51.316;5.994;2023-04-02T05:10:43;4.65;;;3.85;;
49223;SDS011;35050;51.316;5.994;2023-04-02T05:13:15;6.90;;;4.20;;
49223;SDS011;35050;51.316;5.994;2023-04-02T05:16:02;4.40;;;3.80;;
49223;SDS011;35050;51.316;5.994;2023-04-02T05:21:14;5.85;;;4.63;;
49223;SDS011;35050;51.316;5.994;2023-04-02T05:23:47;4.70;;;3.85;;
49223;SDS011;35050;51.316;5.994;2023-04-02T05:26:28;7.10;;;5.18;;
49223;SDS011;35050;51.316;5.994;2023-04-02T05:29:17;5.10;;;4.60;;
49223;SDS011;35050;51.316;5.994;2023-04-02T05:34:33;6.97;;;5.05;;
49223;SDS011;35050;51.316;5.994;2023-04-02T05:37:03;5.82;;;4.95;;
49223;SDS011;35050;51.316;5.994;2023-04-02T05:39:29;6.47;;;4.30;;
49223;SDS011;35050;51.316;5.994;2023-04-02T05:41:58;4.90;;;4.20;;
49223;SDS011;35050;51.316;5.994;2023-04-02T05:44:33;8.13;;;5.22;;
49223;SDS011;35050;51.316;5.994;2023-04-02T05:47:04;6.90;;;4.80;;
49223;SDS011;35050;51.316;5.994;2023-04-02T05:52:19;6.55;;;4.20;;
49223;SDS011;35050;51.316;5.994;2023-04-02T05:57:48;5.13;;;3.58;;
49223;SDS011;35050;51.316;5.994;2023-04-02T06:01:16;4.65;;;3.20;;
49223;SDS011;35050;51.316;5.994;2023-04-02T06:05:51;4.93;;;3.50;;
49223;SDS011;35050;51.316;5.994;2023-04-02T06:08:21;4.35;;;3.53;;
49223;SDS011;35050;51.316;5.994;2023-04-02T06:10:59;5.35;;;3.28;;
49223;SDS011;35050;51.316;5.994;2023-04-02T06:13:34;5.03;;;3.42;;
49223;SDS011;35050;51.316;5.994;2023-04-02T06:16:00;4.10;;;3.28;;
49223;SDS011;35050;51.316;5.994;2023-04-02T06:18:27;6.95;;;3.58;;
49223;SDS011;35050;51.316;5.994;2023-04-02T06:20:55;4.65;;;3.45;;
49223;SDS011;35050;51.316;5.994;2023-04-02T06:23:25;6.28;;;3.80;;
49223;SDS011;35050;51.316;5.994;2023-04-02T06:28:44;5.47;;;3.97;;
49223;SDS011;35050;51.316;5.994;2023-04-02T06:33:53;5.32;;;3.83;;
49223;SDS011;35050;51.316;5.994;2023-04-02T06:36:20;4.30;;;3.58;;
49223;SDS011;35050;51.316;5.994;2023-04-02T06:38:47;5.93;;;3.95;;
49223;SDS011;35050;51.316;5.994;2023-04-02T06:41:22;5.57;;;4.32;;
49223;SDS011;35050;51.316;5.994;2023-04-02T06:46:27;5.35;;;3.70;;
49223;SDS011;35050;51.316;5.994;2023-04-02T06:49:14;5.63;;;3.60;;
49223;SDS011;35050;51.316;5.994;2023-04-02T06:52:03;5.28;;;3.38;;
49223;SDS011;35050;51.316;5.994;2023-04-02T06:54:33;5.32;;;2.95;;
49223;SDS011;35050;51.316;5.994;2023-04-02T06:56:59;5.20;;;3.15;;
49223;SDS011;35050;51.316;5.994;2023-04-02T06:59:24;5.70;;;3.10;;
49223;SDS011;35050;51.316;5.994;2023-04-02T07:01:52;6.30;;;3.35;;
49223;SDS011;35050;51.316;5.994;2023-04-02T07:04:21;4.68;;;3.20;;
49223;SDS011;35050;51.316;5.994;2023-04-02T07:06:48;4.85;;;3.65;;
49223;SDS011;35050;51.316;5.994;2023-04-02T07:09:13;6.25;;;3.38;;
49223;SDS011;35050;51.316;5.994;2023-04-02T07:11:39;5.40;;;3.38;;
49223;SDS011;35050;51.316;5.994;2023-04-02T07:14:05;4.57;;;3.10;;
49223;SDS011;35050;51.316;5.994;2023-04-02T07:16:31;6.25;;;3.33;;
49223;SDS011;35050;51.316;5.994;2023-04-02T07:18:58;4.45;;;3.03;;
49223;SDS011;35050;51.316;5.994;2023-04-02T07:21:27;5.40;;;3.40;;
49223;SDS011;35050;51.316;5.994;2023-04-02T07:23:53;5.65;;;3.42;;
49223;SDS011;35050;51.316;5.994;2023-04-02T07:26:21;5.50;;;3.90;;
49223;SDS011;35050;51.316;5.994;2023-04-02T07:28:49;8.80;;;3.97;;
49223;SDS011;35050;51.316;5.994;2023-04-02T07:31:19;5.82;;;3.42;;
49223;SDS011;35050;51.316;5.994;2023-04-02T07:33:48;4.72;;;3.05;;
49223;SDS011;35050;51.316;5.994;2023-04-02T07:36:15;7.80;;;3.55;;
49223;SDS011;35050;51.316;5.994;2023-04-02T07:38:42;5.47;;;3.08;;
49223;SDS011;35050;51.316;5.994;2023-04-02T07:41:08;5.97;;;3.78;;
49223;SDS011;35050;51.316;5.994;2023-04-02T07:43:34;7.55;;;3.25;;
49223;SDS011;35050;51.316;5.994;2023-04-02T07:46:01;7.60;;;3.75;;
49223;SDS011;35050;51.316;5.994;2023-04-02T07:48:27;7.28;;;3.60;;
49223;SDS011;35050;51.316;5.994;2023-04-02T07:50:53;4.72;;;2.78;;
49223;SDS011;35050;51.316;5.994;2023-04-02T07:53:25;4.07;;;2.20;;
49223;SDS011;35050;51.316;5.994;2023-04-02T07:56:02;3.53;;;2.30;;
49223;SDS011;35050;51.316;5.994;2023-04-02T07:58:30;2.92;;;2.60;;
49223;SDS011;35050;51.316;5.994;2023-04-02T08:00:56;4.72;;;2.78;;
49223;SDS011;35050;51.316;5.994;2023-04-02T08:03:23;3.55;;;2.25;;
49223;SDS011;35050;51.316;5.994;2023-04-02T08:05:50;4.18;;;3.00;;
49223;SDS011;35050;51.316;5.994;2023-04-02T08:08:20;7.05;;;2.97;;
49223;SDS011;35050;51.316;5.994;2023-04-02T08:10:46;6.10;;;3.38;;
49223;SDS011;35050;51.316;5.994;2023-04-02T08:13:13;5.80;;;3.20;;
49223;SDS011;35050;51.316;5.994;2023-04-02T08:15:40;5.50;;;3.20;;
49223;SDS011;35050;51.316;5.994;2023-04-02T08:18:07;5.18;;;3.08;;
49223;SDS011;35050;51.316;5.994;2023-04-02T08:20:33;5.50;;;2.95;;
49223;SDS011;35050;51.316;5.994;2023-04-02T08:22:59;6.32;;;3.40;;
49223;SDS011;35050;51.316;5.994;2023-04-02T08:25:25;5.45;;;2.92;;
49223;SDS011;35050;51.316;5.994;2023-04-02T08:27:51;5.55;;;2.60;;
49223;SDS011;35050;51.316;5.994;2023-04-02T08:30:17;5.20;;;2.80;;
49223;SDS011;35050;51.316;5.994;2023-04-02T08:32:43;3.88;;;3.03;;
49223;SDS011;35050;51.316;5.994;2023-04-02T08:35:10;3.38;;;2.50;;
49223;SDS011;35050;51.316;5.994;2023-04-02T08:37:37;7.28;;;3.03;;
49223;SDS011;35050;51.316;5.994;2023-04-02T08:40:03;6.38;;;3.05;;
49223;SDS011;35050;51.316;5.994;2023-04-02T08:42:42;4.78;;;2.75;;
49223;SDS011;35050;51.316;5.994;2023-04-02T08:48:08;4.97;;;2.42;;
49223;SDS011;35050;51.316;5.994;2023-04-02T08:50:36;5.57;;;2.83;;
49223;SDS011;35050;51.316;5.994;2023-04-02T08:53:05;5.55;;;2.35;;
49223;SDS011;35050;51.316;5.994;2023-04-02T08:58:20;4.43;;;2.30;;
49223;SDS011;35050;51.316;5.994;2023-04-02T09:01:05;4.75;;;2.38;;
49223;SDS011;35050;51.316;5.994;2023-04-02T09:03:40;5.28;;;2.40;;
49223;SDS011;35050;51.316;5.994;2023-04-02T09:06:10;5.72;;;2.20;;
49223;SDS011;35050;51.316;5.994;2023-04-02T09:08:40;4.15;;;2.17;;
49223;SDS011;35050;51.316;5.994;2023-04-02T09:11:14;6.25;;;2.40;;
49223;SDS011;35050;51.316;5.994;2023-04-02T09:13:44;5.15;;;2.70;;
49223;SDS011;35050;51.316;5.994;2023-04-02T09:16:14;5.25;;;2.88;;
49223;SDS011;35050;51.316;5.994;2023-04-02T09:18:41;4.10;;;2.35;;
49223;SDS011;35050;51.316;5.994;2023-04-02T09:24:02;4.90;;;2.42;;
49223;SDS011;35050;51.316;5.994;2023-04-02T09:26:29;8.00;;;2.40;;
49223;SDS011;35050;51.316;5.994;2023-04-02T09:29:03;6.10;;;2.35;;
49223;SDS011;35050;51.316;5.994;2023-04-02T09:31:54;2.53;;;1.60;;
49223;SDS011;35050;51.316;5.994;2023-04-02T09:34:30;4.95;;;2.00;;
49223;SDS011;35050;51.316;5.994;2023-04-02T09:39:42;5.03;;;1.98;;
49223;SDS011;35050;51.316;5.994;2023-04-02T09:42:29;4.78;;;2.40;;
49223;SDS011;35050;51.316;5.994;2023-04-02T09:47:48;5.30;;;1.85;;
49223;SDS011;35050;51.316;5.994;2023-04-02T09:50:23;3.47;;;1.90;;
49223;SDS011;35050;51.316;5.994;2023-04-02T09:52:53;3.35;;;1.95;;
49223;SDS011;35050;51.316;5.994;2023-04-02T09:55:27;3.83;;;1.90;;
49223;SDS011;35050;51.316;5.994;2023-04-02T09:58:14;3.83;;;1.90;;
49223;SDS011;35050;51.316;5.994;2023-04-02T10:00:50;3.65;;;2.47;;
49223;SDS011;35050;51.316;5.994;2023-04-02T10:03:19;5.15;;;2.33;;
49223;SDS011;35050;51.316;5.994;2023-04-02T10:05:48;4.63;;;2.08;;
49223;SDS011;35050;51.316;5.994;2023-04-02T10:10:58;4.25;;;1.90;;
49223;SDS011;35050;51.316;5.994;2023-04-02T10:13:42;3.08;;;1.77;;
49223;SDS011;35050;51.316;5.994;2023-04-02T10:21:49;2.42;;;1.65;;
49223;SDS011;35050;51.316;5.994;2023-04-02T10:24:16;3.83;;;1.90;;
49223;SDS011;35050;51.316;5.994;2023-04-02T10:37:47;4.50;;;1.65;;
49223;SDS011;35050;51.316;5.994;2023-04-02T10:40:34;4.25;;;1.70;;
49223;SDS011;35050;51.316;5.994;2023-04-02T10:51:43;2.72;;;1.63;;
49223;SDS011;35050;51.316;5.994;2023-04-02T10:56:45;3.80;;;1.60;;
49223;SDS011;35050;51.316;5.994;2023-04-02T10:59:22;3.42;;;1.80;;
49223;SDS011;35050;51.316;5.994;2023-04-02T11:01:51;3.17;;;1.42;;
49223;SDS011;35050;51.316;5.994;2023-04-02T11:04:21;3.25;;;1.88;;
49223;SDS011;35050;51.316;5.994;2023-04-02T11:07:00;2.95;;;1.92;;
49223;SDS011;35050;51.316;5.994;2023-04-02T11:09:30;2.28;;;1.50;;
49223;SDS011;35050;51.316;5.994;2023-04-02T11:11:59;2.13;;;1.55;;
49223;SDS011;35050;51.316;5.994;2023-04-02T11:14:27;5.32;;;1.92;;
49223;SDS011;35050;51.316;5.994;2023-04-02T11:16:55;3.03;;;1.73;;
49223;SDS011;35050;51.316;5.994;2023-04-02T11:19:33;3.20;;;1.70;;
49223;SDS011;35050;51.316;5.994;2023-04-02T11:22:00;2.85;;;1.50;;
49223;SDS011;35050;51.316;5.994;2023-04-02T11:29:43;3.40;;;1.80;;
49223;SDS011;35050;51.316;5.994;2023-04-02T11:37:32;2.75;;;1.65;;
49223;SDS011;35050;51.316;5.994;2023-04-02T11:50:29;3.28;;;1.65;;
49223;SDS011;35050;51.316;5.994;2023-04-02T12:09:02;2.30;;;1.20;;
49223;SDS011;35050;51.316;5.994;2023-04-02T12:11:52;2.13;;;1.45;;
49223;SDS011;35050;51.316;5.994;2023-04-02T12:17:29;3.67;;;1.55;;
49223;SDS011;35050;51.316;5.994;2023-04-02T12:19:58;4.72;;;1.40;;
49223;SDS011;35050;51.316;5.994;2023-04-02T12:22:29;2.60;;;1.30;;
49223;SDS011;35050;51.316;5.994;2023-04-02T12:25:41;3.75;;;1.52;;
49223;SDS011;35050;51.316;5.994;2023-04-02T12:27:42;2.28;;;1.30;;
49223;SDS011;35050;51.316;5.994;2023-04-02T12:30:18;2.47;;;1.27;;
49223;SDS011;35050;51.316;5.994;2023-04-02T12:32:45;2.35;;;1.38;;
49223;SDS011;35050;51.316;5.994;2023-04-02T12:35:28;2.10;;;1.40;;
49223;SDS011;35050;51.316;5.994;2023-04-02T12:37:57;3.00;;;1.60;;
49223;SDS011;35050;51.316;5.994;2023-04-02T12:40:23;3.35;;;1.60;;
49223;SDS011;35050;51.316;5.994;2023-04-02T12:42:50;1.55;;;1.20;;
49223;SDS011;35050;51.316;5.994;2023-04-02T12:45:34;2.17;;;1.17;;
49223;SDS011;35050;51.316;5.994;2023-04-02T12:48:02;2.08;;;1.40;;
49223;SDS011;35050;51.316;5.994;2023-04-02T12:50:29;2.40;;;1.70;;
49223;SDS011;35050;51.316;5.994;2023-04-02T12:52:57;2.50;;;1.20;;
49223;SDS011;35050;51.316;5.994;2023-04-02T12:55:24;1.80;;;1.35;;
49223;SDS011;35050;51.316;5.994;2023-04-02T12:57:55;2.72;;;1.50;;
49223;SDS011;35050;51.316;5.994;2023-04-02T13:02:47;2.63;;;1.35;;
49223;SDS011;35050;51.316;5.994;2023-04-02T13:05:37;2.58;;;1.63;;
49223;SDS011;35050;51.316;5.994;2023-04-02T13:08:18;2.75;;;1.52;;
49223;SDS011;35050;51.316;5.994;2023-04-02T13:10:56;2.78;;;1.40;;
49223;SDS011;35050;51.316;5.994;2023-04-02T13:13:25;1.95;;;1.35;;
49223;SDS011;35050;51.316;5.994;2023-04-02T13:16:01;4.28;;;1.80;;
49223;SDS011;35050;51.316;5.994;2023-04-02T13:18:29;1.67;;;1.23;;
49223;SDS011;35050;51.316;5.994;2023-04-02T13:20:58;2.63;;;1.63;;
49223;SDS011;35050;51.316;5.994;2023-04-02T13:26:00;3.03;;;1.27;;
49223;SDS011;35050;51.316;5.994;2023-04-02T13:28:34;1.38;;;1.08;;
49223;SDS011;35050;51.316;5.994;2023-04-02T13:31:00;2.00;;;1.17;;
49223;SDS011;35050;51.316;5.994;2023-04-02T13:33:25;1.75;;;1.10;;
49223;SDS011;35050;51.316;5.994;2023-04-02T13:35:51;2.50;;;1.10;;
49223;SDS011;35050;51.316;5.994;2023-04-02T13:38:17;2.92;;;1.33;;
49223;SDS011;35050;51.316;5.994;2023-04-02T13:40:42;3.40;;;1.60;;
49223;SDS011;35050;51.316;5.994;2023-04-02T13:43:13;3.00;;;1.55;;
49223;SDS011;35050;51.316;5.994;2023-04-02T13:45:41;1.25;;;0.80;;
49223;SDS011;35050;51.316;5.994;2023-04-02T13:48:12;1.88;;;1.40;;
49223;SDS011;35050;51.316;5.994;2023-04-02T13:50:40;1.67;;;1.20;;
49223;SDS011;35050;51.316;5.994;2023-04-02T13:53:06;1.60;;;1.35;;
49223;SDS011;35050;51.316;5.994;2023-04-02T13:55:37;5.10;;;2.08;;
49223;SDS011;35050;51.316;5.994;2023-04-02T13:58:06;3.50;;;1.50;;
49223;SDS011;35050;51.316;5.994;2023-04-02T14:00:32;2.65;;;1.20;;
49223;SDS011;35050;51.316;5.994;2023-04-02T14:03:19;2.63;;;1.55;;
49223;SDS011;35050;51.316;5.994;2023-04-02T14:22:13;2.13;;;1.23;;
49223;SDS011;35050;51.316;5.994;2023-04-02T14:25:06;3.00;;;1.02;;
49223;SDS011;35050;51.316;5.994;2023-04-02T14:30:44;1.92;;;1.05;;
49223;SDS011;35050;51.316;5.994;2023-04-02T14:36:06;1.00;;;0.90;;
49223;SDS011;35050;51.316;5.994;2023-04-02T14:39:16;4.30;;;1.67;;
49223;SDS011;35050;51.316;5.994;2023-04-02T14:45:07;1.00;;;0.70;;
49223;SDS011;35050;51.316;5.994;2023-04-02T14:47:38;2.08;;;1.10;;
49223;SDS011;35050;51.316;5.994;2023-04-02T14:50:11;1.77;;;0.80;;
49223;SDS011;35050;51.316;5.994;2023-04-02T14:52:42;1.40;;;1.00;;
49223;SDS011;35050;51.316;5.994;2023-04-02T14:55:20;4.07;;;1.23;;
49223;SDS011;35050;51.316;5.994;2023-04-02T14:58:00;1.73;;;1.08;;
49223;SDS011;35050;51.316;5.994;2023-04-02T15:03:32;1.55;;;0.88;;
49223;SDS011;35050;51.316;5.994;2023-04-02T15:06:02;2.53;;;1.10;;
49223;SDS011;35050;51.316;5.994;2023-04-02T15:08:36;2.92;;;1.05;;
49223;SDS011;35050;51.316;5.994;2023-04-02T15:11:07;2.35;;;1.33;;
49223;SDS011;35050;51.316;5.994;2023-04-02T15:13:40;1.05;;;0.82;;
49223;SDS011;35050;51.316;5.994;2023-04-02T15:16:17;1.75;;;1.08;;
49223;SDS011;35050;51.316;5.994;2023-04-02T15:18:45;2.60;;;1.02;;
49223;SDS011;35050;51.316;5.994;2023-04-02T15:26:23;2.40;;;1.23;;
49223;SDS011;35050;51.316;5.994;2023-04-02T15:31:44;1.73;;;1.20;;
49223;SDS011;35050;51.316;5.994;2023-04-02T15:34:31;2.40;;;0.90;;
49223;SDS011;35050;51.316;5.994;2023-04-02T15:40:21;1.58;;;1.15;;
49223;SDS011;35050;51.316;5.994;2023-04-02T15:48:17;3.08;;;1.40;;
49223;SDS011;35050;51.316;5.994;2023-04-02T15:50:50;2.13;;;1.00;;
49223;SDS011;35050;51.316;5.994;2023-04-02T16:01:26;2.35;;;1.13;;
49223;SDS011;35050;51.316;5.994;2023-04-02T16:12:32;1.60;;;1.10;;
49223;SDS011;35050;51.316;5.994;2023-04-02T16:15:10;1.33;;;1.13;;
49223;SDS011;35050;51.316;5.994;2023-04-02T16:17:41;2.10;;;1.35;;
49223;SDS011;35050;51.316;5.994;2023-04-02T16:23:12;3.50;;;1.20;;
49223;SDS011;35050;51.316;5.994;2023-04-02T16:25:46;2.47;;;1.20;;
49223;SDS011;35050;51.316;5.994;2023-04-02T16:28:22;1.67;;;1.05;;
49223;SDS011;35050;51.316;5.994;2023-04-02T16:33:51;2.58;;;1.30;;
49223;SDS011;35050;51.316;5.994;2023-04-02T16:57:40;3.47;;;1.83;;
49223;SDS011;35050;51.316;5.994;2023-04-02T17:00:52;2.33;;;1.27;;
49223;SDS011;35050;51.316;5.994;2023-04-02T17:06:34;1.83;;;1.17;;
49223;SDS011;35050;51.316;5.994;2023-04-02T17:09:13;3.13;;;1.30;;
49223;SDS011;35050;51.316;5.994;2023-04-02T17:11:50;4.00;;;2.30;;
49223;SDS011;35050;51.316;5.994;2023-04-02T17:14:37;6.47;;;3.30;;
49223;SDS011;35050;51.316;5.994;2023-04-02T17:19:37;4.53;;;3.50;;
49223;SDS011;35050;51.316;5.994;2023-04-02T17:22:04;6.60;;;3.70;;
49223;SDS011;35050;51.316;5.994;2023-04-02T17:24:34;3.72;;;2.80;;
49223;SDS011;35050;51.316;5.994;2023-04-02T17:29:47;3.17;;;2.20;;
49223;SDS011;35050;51.316;5.994;2023-04-02T17:32:20;4.95;;;2.75;;
49223;SDS011;35050;51.316;5.994;2023-04-02T17:34:49;5.15;;;3.17;;
49223;SDS011;35050;51.316;5.994;2023-04-02T17:40:19;2.75;;;2.10;;
49223;SDS011;35050;51.316;5.994;2023-04-02T17:43:03;1.92;;;1.48;;
49223;SDS011;35050;51.316;5.994;2023-04-02T17:51:44;2.92;;;1.50;;
49223;SDS011;35050;51.316;5.994;2023-04-02T17:54:04;3.80;;;1.83;;
49223;SDS011;35050;51.316;5.994;2023-04-02T18:35:19;4.80;;;2.88;;
49223;SDS011;35050;51.316;5.994;2023-04-02T18:49:22;1.95;;;1.48;;
49223;SDS011;35050;51.316;5.994;2023-04-02T18:52:01;2.35;;;1.63;;
49223;SDS011;35050;51.316;5.994;2023-04-02T18:57:22;2.20;;;1.50;;
49223;SDS011;35050;51.316;5.994;2023-04-02T19:02:41;2.33;;;1.45;;
49223;SDS011;35050;51.316;5.994;2023-04-02T19:07:41;1.63;;;1.52;;
49223;SDS011;35050;51.316;5.994;2023-04-02T19:10:32;2.13;;;1.88;;
49223;SDS011;35050;51.316;5.994;2023-04-02T19:13:01;2.35;;;1.80;;
49223;SDS011;35050;51.316;5.994;2023-04-02T19:18:38;2.60;;;1.90;;
49223;SDS011;35050;51.316;5.994;2023-04-02T19:33:10;9.23;;;5.88;;
49223;SDS011;35050;51.316;5.994;2023-04-02T19:36:11;9.90;;;5.65;;
49223;SDS011;35050;51.316;5.994;2023-04-02T19:39:24;9.85;;;5.68;;
49223;SDS011;35050;51.316;5.994;2023-04-02T19:42:12;11.98;;;6.78;;
49223;SDS011;35050;51.316;5.994;2023-04-02T19:44:49;16.30;;;8.55;;
49223;SDS011;35050;51.316;5.994;2023-04-02T19:47:17;16.55;;;9.32;;
49223;SDS011;35050;51.316;5.994;2023-04-02T19:49:44;16.85;;;10.27;;
49223;SDS011;35050;51.316;5.994;2023-04-02T19:52:10;13.25;;;8.45;;
49223;SDS011;35050;51.316;5.994;2023-04-02T19:54:35;13.30;;;7.53;;
49223;SDS011;35050;51.316;5.994;2023-04-02T19:57:02;13.60;;;7.72;;
49223;SDS011;35050;51.316;5.994;2023-04-02T19:59:28;13.02;;;7.60;;
49223;SDS011;35050;51.316;5.994;2023-04-02T20:01:53;14.00;;;7.97;;
49223;SDS011;35050;51.316;5.994;2023-04-02T20:04:19;11.20;;;7.07;;
49223;SDS011;35050;51.316;5.994;2023-04-02T20:06:44;11.18;;;6.03;;
49223;SDS011;35050;51.316;5.994;2023-04-02T20:09:10;8.82;;;5.10;;
49223;SDS011;35050;51.316;5.994;2023-04-02T20:11:36;7.55;;;4.53;;
49223;SDS011;35050;51.316;5.994;2023-04-02T20:14:02;5.70;;;3.65;;
49223;SDS011;35050;51.316;5.994;2023-04-02T20:16:28;4.75;;;2.95;;
49223;SDS011;35050;51.316;5.994;2023-04-02T20:18:54;4.72;;;3.15;;
49223;SDS011;35050;51.316;5.994;2023-04-02T20:21:20;3.58;;;2.40;;
49223;SDS011;35050;51.316;5.994;2023-04-02T20:23:46;5.15;;;3.10;;
49223;SDS011;35050;51.316;5.994;2023-04-02T20:26:11;3.85;;;2.90;;
49223;SDS011;35050;51.316;5.994;2023-04-02T20:28:37;4.25;;;2.58;;
49223;SDS011;35050;51.316;5.994;2023-04-02T20:31:13;4.43;;;2.65;;
49223;SDS011;35050;51.316;5.994;2023-04-02T20:33:40;5.18;;;2.60;;
49223;SDS011;35050;51.316;5.994;2023-04-02T20:36:11;3.50;;;2.42;;
49223;SDS011;35050;51.316;5.994;2023-04-02T20:38:41;4.30;;;2.58;;
49223;SDS011;35050;51.316;5.994;2023-04-02T20:41:07;4.25;;;2.30;;
49223;SDS011;35050;51.316;5.994;2023-04-02T20:43:34;2.83;;;2.00;;
49223;SDS011;35050;51.316;5.994;2023-04-02T20:46:02;4.60;;;1.95;;
49223;SDS011;35050;51.316;5.994;2023-04-02T20:48:29;2.58;;;1.95;;
49223;SDS011;35050;51.316;5.994;2023-04-02T20:50:57;1.88;;;1.40;;
49223;SDS011;35050;51.316;5.994;2023-04-02T20:53:24;1.83;;;1.40;;
49223;SDS011;35050;51.316;5.994;2023-04-02T20:55:50;2.33;;;1.42;;
49223;SDS011;35050;51.316;5.994;2023-04-02T20:58:16;2.13;;;1.40;;
49223;SDS011;35050;51.316;5.994;2023-04-02T21:00:43;1.30;;;1.20;;
49223;SDS011;35050;51.316;5.994;2023-04-02T21:03:10;2.85;;;1.30;;
49223;SDS011;35050;51.316;5.994;2023-04-02T21:05:45;1.40;;;1.10;;
49223;SDS011;35050;51.316;5.994;2023-04-02T21:08:12;1.42;;;1.20;;
49223;SDS011;35050;51.316;5.994;2023-04-02T21:10:38;1.50;;;1.20;;
49223;SDS011;35050;51.316;5.994;2023-04-02T21:13:04;1.63;;;1.52;;